NDO weather

San Fernando Airstrip
Teapa, Tabasco, Mexico

Public forecast

Using degrees Celsius for public forecast. Weather courtesy of forecast.io.

METAR (pilot weather report)

Closest report is Carlos Rovirosa Pérez International Airport, 25.3 nm (46.8 km) NNE. Retrieved 2019/06/27 11:40 UTC (0 seconds ago):

MMVA 271140Z 07010KT 7SM FEW060 24/23 A2996 RMK SLP139 5//// 917 8/030

TAF (pilot weather forecast)

Closest forecast is Carlos Rovirosa Pérez International Airport, 25.3 nm (46.8 km) NNE. Retrieved 2019/06/27 06:43 UTC (5 hours ago):

TAF MMVA 270536Z 2706/2806 04009KT 6SM HZ SKC FM271000 12005KT 5SM HZ SCT010 FM271800 09010KT P6SM SCT015 SCT070 PROB40 2721/2801 4SM TSRA BKN015CB OVC070 FM280500 08005KT 6SM HZ SCT015 SCT080 BKN220